Lithia, Florida
Current Conditions -  °F | °C
As of 3:15 PM on Thursday 18 Dec 2014 (Local Time) from KPCM Reporting Station
Clear Clear  
Wind Chill: 72°   Ceiling: Unl
Heat Index: 72°   Visibility: 10mi
Dew Point: 48°   Wind: 5mph
Humidity: 43%   Direction: 320°NW
Pressure: 30.12"   Gusts: NA
Location:  27.85°N, 82.17°W
Report Text: KPCM 182015Z AUTO 32004KT 10SM CLR 22/09 A3012 RMK AO2
Loading
Personal Weather Stations






























Interactive Weather Map New forecast layout! Learn more

10-Day Weather Forecast

Advertisements
Track Severe Weather on mobile